CLMO2: North Canadian River

                                SHEF ID:       CLMO2     North Canadian River near Calume
STATION TYPE:
Regulating: Stage = 12.00, Flow = 1420

STAGE STAGE(2) RIV-FLOW WTR-TEMP DIS-OXY PH CONDUCT BAT-LOAD
ft ft cfs F mg/l su umho/cm volt
Ccp-Rev Ccp-Rev Ccp-Rev Ccp-Rev Ccp-Rev Ccp-Rev Ccp-Rev Ccp-Rev
(America/Chicago)
08/30 00:00 2.78 ---- 0 76.53 0.79 7.50 1347 12.50
08/30 01:00 2.78 ---- 0 75.51 0.40 7.49 1347 12.50
08/30 02:00 2.79 ---- 0 74.84 0.52 7.46 1332 12.47
08/30 03:00 2.80 ---- 0 74.64 0.44 7.45 1316 12.56
08/30 04:00 2.80 ---- 0 74.17 0.44 7.44 1320 12.45
08/30 05:00 2.81 ---- 0 73.72 0.42 7.42 1307 12.50
08/30 06:00 2.81 ---- 0 73.45 0.36 7.40 1304 12.42
08/30 07:00 2.82 ---- 0 73.20 0.45 7.43 1302 12.46
08/30 08:00 2.82 ---- 0 73.40 0.49 7.41 1297 12.40
08/30 09:00 2.80 ---- 0 76.17 2.06 7.46 1291 12.46
08/30 10:00 2.81 ---- 0 79.30 4.90 7.67 1285 12.40
08/30 11:00 2.80 ---- 0 81.93 6.64 7.77 1284 12.51
08/30 12:00 2.80 ---- 0 84.88 8.50 7.93 1280 12.53
08/30 13:00 2.79 ---- 0 87.51 9.87 8.07 1281 12.67
08/30 14:00 2.78 ---- 0 87.85 9.35 8.11 1278 12.90
08/30 15:00 2.77 ---- 0 84.22 6.37 8.06 1287 12.93
08/30 16:00 2.77 ---- 0 82.22 4.99 8.00 1300 12.90
08/30 17:00 2.76 ---- 0 81.16 4.06 7.94 1313 12.75
08/30 18:00 2.76 ---- 0 85.01 8.73 8.10 1318 12.61
08/30 19:00 2.76 ---- 0 82.08 6.71 8.11 1325 12.65
08/30 20:00 2.76 ---- 0 80.24 2.46 7.88 1338 12.55
08/30 21:00 2.76 ---- 0 79.18 0.92 7.73 1349 12.57
08/30 22:00 2.76 ---- 0 77.97 0.68 7.62 1356 12.53
08/30 23:00 2.77 ---- 0 76.95 0.75 7.55 1368 12.55
Data processed at Mon 31Aug2026 04:25 GMT

NOTICE: If you are parsing this page

Please convert to using our Data API. Starting early 2026 we will be migrating to: https://water.usace.army.mil with modern pages rendered in JavaScript. When this migration completes you will no longer be able to scrape this page! CWMSDataAPI (CDA)

Timeseries IDs (TSIDs)

TSIDs used from left to right in the data table
CALU.Stage.Inst.1Hour.0.Ccp-Rev
CALU.Stage-Alt.Inst.1Hour.0.Ccp-Rev
CALU.Flow.Inst.1Hour.0.Ccp-Rev
CALU.Temp-Water.Inst.1Hour.0.Ccp-Rev
CALU.Conc-DO.Inst.1Hour.0.Ccp-Rev
CALU.pH.Inst.1Hour.0.Ccp-Rev
CALU.Cond-Water.Inst.1Hour.0.Ccp-Rev
CALU.Volt-Battery Load.Inst.1Hour.0.Ccp-Rev

                            

All information presented herein is the property of the government of the United States of America and may be revised or deleted at any time without prior notice. Dissemination of this information without the expressed written consent of the Public Affairs Office, Tulsa District U.S. Army Corps of Engineers is strictly prohibited. These data are gathered electronically and, as presented, have NOT undergone any form of quality control. These data are NOT guaranteed to be valid or correct.